createdAt,value
2022-09-24T00:00:53.264Z,17.57
2022-09-24T00:03:23.544Z,18.23
2022-09-24T00:05:50.910Z,17.83
2022-09-24T00:08:19.329Z,17.47
2022-09-24T00:10:48.869Z,17.93
2022-09-24T00:13:18.660Z,17.60
2022-09-24T00:15:47.949Z,17.33
2022-09-24T00:18:17.411Z,17.70
2022-09-24T00:20:46.104Z,18.33
2022-09-24T00:23:13.502Z,18.10
2022-09-24T00:25:59.768Z,18.40
2022-09-24T00:28:30.128Z,18.67
2022-09-24T00:30:59.019Z,18.50
2022-09-24T00:33:28.082Z,18.17
2022-09-24T00:36:02.097Z,17.83
2022-09-24T00:38:29.964Z,18.27
2022-09-24T00:40:57.683Z,18.77
2022-09-24T00:43:27.050Z,18.40
2022-09-24T00:45:56.405Z,19.47
2022-09-24T00:48:24.523Z,19.80
2022-09-24T00:50:51.950Z,20.60
2022-09-24T00:53:23.030Z,20.73
2022-09-24T00:55:54.490Z,20.97
2022-09-24T00:58:23.888Z,20.87
2022-09-24T01:00:53.158Z,20.60
2022-09-24T01:03:23.173Z,19.80
2022-09-24T01:05:51.014Z,20.63
2022-09-24T01:08:20.850Z,21.00
2022-09-24T01:10:58.285Z,20.40
2022-09-24T01:13:36.034Z,19.07
2022-09-24T01:16:08.325Z,18.73
2022-09-24T01:18:39.769Z,18.53
2022-09-24T01:21:20.416Z,18.70
2022-09-24T01:24:18.379Z,19.47
2022-09-24T01:26:57.026Z,17.97
2022-09-24T01:29:31.952Z,18.27
2022-09-24T01:32:05.199Z,18.93
2022-09-24T01:34:38.494Z,18.30
2022-09-24T01:37:05.895Z,19.33
2022-09-24T01:39:34.217Z,18.57
2022-09-24T01:42:02.215Z,18.70
2022-09-24T01:44:31.520Z,19.67
2022-09-24T01:46:59.548Z,18.80
2022-09-24T01:49:27.349Z,18.13
2022-09-24T01:51:58.242Z,18.00
2022-09-24T01:54:28.742Z,16.20
2022-09-24T01:56:59.593Z,17.20
2022-09-24T01:59:31.301Z,16.30
2022-09-24T02:02:02.362Z,16.00
2022-09-24T02:04:31.160Z,16.90
2022-09-24T02:07:02.197Z,16.57
2022-09-24T02:09:31.131Z,16.93
2022-09-24T02:11:59.685Z,16.47
2022-09-24T02:14:28.417Z,16.47
2022-09-24T02:16:58.971Z,15.50
2022-09-24T02:19:29.457Z,15.97
2022-09-24T02:21:57.452Z,16.60
2022-09-24T02:24:27.585Z,16.03
2022-09-24T02:26:55.004Z,16.30
2022-09-24T02:29:23.200Z,16.30
2022-09-24T02:31:51.075Z,16.47
2022-09-24T02:34:21.993Z,17.97
2022-09-24T02:36:50.434Z,17.83
2022-09-24T02:39:18.405Z,18.90
2022-09-24T02:41:48.029Z,18.97
2022-09-24T02:44:16.213Z,18.40
2022-09-24T02:46:43.833Z,18.03
2022-09-24T02:49:11.681Z,19.00
2022-09-24T02:51:43.464Z,18.20
2022-09-24T02:54:11.487Z,17.20
2022-09-24T02:56:39.013Z,17.23
2022-09-24T02:59:07.597Z,16.40
2022-09-24T03:01:35.287Z,18.00
2022-09-24T03:04:03.289Z,17.13
2022-09-24T03:06:31.312Z,17.03
2022-09-24T03:09:00.871Z,18.30
2022-09-24T03:11:28.882Z,16.70
2022-09-24T03:13:56.258Z,16.57
2022-09-24T03:16:23.712Z,16.80
2022-09-24T03:18:51.110Z,17.40
2022-09-24T03:21:20.166Z,16.50
2022-09-24T03:23:47.757Z,16.33
2022-09-24T03:26:17.476Z,16.07
2022-09-24T03:28:44.897Z,15.37
2022-09-24T03:31:12.366Z,15.20
2022-09-24T03:33:41.692Z,14.87
2022-09-24T03:36:10.695Z,14.87
2022-09-24T03:38:39.733Z,16.93
2022-09-24T03:41:08.427Z,15.30
2022-09-24T03:43:37.950Z,16.70
2022-09-24T03:46:06.627Z,16.37
2022-09-24T03:48:35.264Z,15.80
2022-09-24T03:51:05.642Z,16.37
2022-09-24T03:53:33.232Z,15.90
2022-09-24T03:56:02.309Z,16.20
2022-09-24T03:58:31.594Z,15.17
2022-09-24T04:01:00.394Z,15.63
2022-09-24T04:03:27.758Z,15.57
2022-09-24T04:05:55.202Z,15.33
2022-09-24T04:08:23.447Z,15.43
2022-09-24T04:10:51.901Z,16.57
2022-09-24T04:13:20.058Z,15.80
2022-09-24T04:15:48.786Z,15.63
2022-09-24T04:18:17.620Z,14.90
2022-09-24T04:20:45.517Z,15.80
2022-09-24T04:23:12.948Z,15.30
2022-09-24T04:25:41.362Z,15.30
2022-09-24T04:28:10.231Z,15.70
2022-09-24T04:30:39.001Z,15.77
2022-09-24T04:33:07.122Z,17.40
2022-09-24T04:35:36.527Z,17.27
2022-09-24T04:38:04.936Z,17.77
2022-09-24T04:40:32.398Z,19.10
2022-09-24T04:43:00.160Z,19.77
2022-09-24T04:45:27.749Z,22.80
2022-09-24T04:47:57.327Z,23.67
2022-09-24T04:50:25.853Z,24.70
2022-09-24T04:52:55.009Z,25.30
2022-09-24T04:55:22.684Z,24.40
2022-09-24T04:57:50.861Z,25.13
2022-09-24T05:00:20.481Z,26.37
2022-09-24T05:02:48.372Z,26.03
2022-09-24T05:05:16.101Z,25.80
2022-09-24T05:07:44.537Z,27.00
2022-09-24T05:10:13.229Z,26.53
2022-09-24T05:12:41.778Z,26.10
2022-09-24T05:15:10.965Z,26.37
2022-09-24T05:17:39.663Z,25.63
2022-09-24T05:20:08.586Z,28.03
2022-09-24T05:22:37.342Z,28.13
2022-09-24T05:25:05.232Z,27.70
2022-09-24T05:27:33.026Z,28.47
2022-09-24T05:30:00.682Z,29.10
2022-09-24T05:32:28.142Z,28.60
2022-09-24T05:34:55.502Z,28.20
2022-09-24T05:37:22.835Z,27.00
2022-09-24T05:39:50.194Z,27.67
2022-09-24T05:42:17.517Z,26.57
2022-09-24T05:44:49.886Z,26.47
2022-09-24T05:47:19.413Z,27.57
2022-09-24T05:49:46.808Z,27.23
2022-09-24T05:52:14.147Z,27.03
2022-09-24T05:54:41.562Z,26.70
2022-09-24T05:57:08.854Z,26.30
2022-09-24T05:59:36.200Z,27.57
2022-09-24T06:02:04.941Z,26.43
2022-09-24T06:04:32.290Z,26.50
2022-09-24T06:06:59.670Z,26.07
2022-09-24T06:09:27.022Z,26.03
2022-09-24T06:11:54.597Z,26.97
2022-09-24T06:14:21.962Z,25.53
2022-09-24T06:16:49.334Z,26.43
2022-09-24T06:19:18.057Z,26.63
2022-09-24T06:21:45.407Z,26.03
2022-09-24T06:24:12.750Z,26.57
2022-09-24T06:26:40.061Z,25.93
2022-09-24T06:29:07.882Z,26.87
2022-09-24T06:31:35.492Z,26.10
2022-09-24T06:34:03.570Z,27.43
2022-09-24T06:36:32.253Z,27.10
2022-09-24T06:38:59.946Z,26.97
2022-09-24T06:41:27.304Z,26.30
2022-09-24T06:43:54.857Z,27.67
2022-09-24T06:46:23.013Z,28.23
2022-09-24T06:48:50.505Z,29.03
2022-09-24T06:51:17.858Z,27.70
2022-09-24T06:53:46.506Z,26.53
2022-09-24T06:56:13.862Z,26.87
2022-09-24T06:58:41.181Z,27.77
2022-09-24T07:01:08.975Z,27.67
2022-09-24T07:03:36.379Z,28.10
2022-09-24T07:06:05.516Z,27.33
2022-09-24T07:08:33.550Z,28.20
2022-09-24T07:11:02.240Z,27.67
2022-09-24T07:13:29.783Z,29.63
2022-09-24T07:15:57.264Z,31.20
2022-09-24T07:18:24.730Z,33.00
2022-09-24T07:20:52.991Z,31.23
2022-09-24T07:23:21.437Z,31.87
2022-09-24T07:25:49.473Z,32.47
2022-09-24T07:28:18.637Z,33.50
2022-09-24T07:30:45.985Z,33.40
2022-09-24T07:33:13.492Z,35.57
2022-09-24T07:35:41.844Z,35.30
2022-09-24T07:38:12.784Z,35.90
2022-09-24T07:40:40.344Z,37.00
2022-09-24T07:43:13.497Z,36.50
2022-09-24T07:45:42.774Z,36.33
2022-09-24T07:48:11.059Z,36.17
2022-09-24T07:50:40.506Z,35.13
2022-09-24T07:53:08.026Z,37.20
2022-09-24T07:55:39.249Z,33.00
2022-09-24T07:58:07.342Z,34.80
2022-09-24T08:00:34.662Z,34.93
2022-09-24T08:03:04.860Z,35.80
2022-09-24T08:05:32.855Z,36.27
2022-09-24T08:08:00.591Z,37.33
2022-09-24T08:10:28.677Z,35.70
2022-09-24T08:12:56.955Z,36.77
2022-09-24T08:15:24.478Z,36.07
2022-09-24T08:17:51.937Z,35.20
2022-09-24T08:20:21.415Z,34.70
2022-09-24T08:22:48.860Z,35.30
2022-09-24T08:25:17.611Z,34.57
2022-09-24T08:27:45.009Z,34.57
2022-09-24T08:30:13.456Z,33.27
2022-09-24T08:32:40.858Z,32.83
2022-09-24T08:35:09.198Z,33.17
2022-09-24T08:37:38.933Z,32.10
2022-09-24T08:40:07.443Z,31.27
2022-09-24T08:42:40.744Z,31.40
2022-09-24T08:45:27.253Z,31.63
2022-09-24T08:47:56.529Z,31.57
2022-09-24T08:50:25.798Z,30.67
2022-09-24T08:53:06.415Z,31.07
2022-09-24T08:55:37.336Z,32.57
2022-09-24T08:58:21.301Z,30.77
2022-09-24T09:00:55.539Z,33.00
2022-09-24T09:03:29.345Z,32.53
2022-09-24T09:06:00.523Z,31.70
2022-09-24T09:08:54.947Z,33.47
2022-09-24T09:11:25.890Z,32.40
2022-09-24T09:13:57.482Z,32.30
2022-09-24T09:16:28.851Z,33.03
2022-09-24T09:19:00.238Z,33.07
2022-09-24T09:21:31.014Z,33.00
2022-09-24T09:24:00.459Z,33.57
2022-09-24T09:26:27.877Z,32.30
2022-09-24T09:28:59.554Z,31.47
2022-09-24T09:31:34.399Z,31.10
2022-09-24T09:34:12.396Z,31.67
2022-09-24T09:36:47.917Z,32.07
2022-09-24T09:39:41.487Z,30.43
2022-09-24T09:42:27.390Z,32.00
2022-09-24T09:44:55.319Z,30.80
2022-09-24T09:47:31.372Z,32.20
2022-09-24T09:50:05.113Z,32.87
2022-09-24T09:52:36.778Z,32.77
2022-09-24T09:55:06.570Z,31.97
2022-09-24T09:57:35.410Z,32.90
2022-09-24T10:00:03.740Z,33.13
2022-09-24T10:02:42.960Z,34.40
2022-09-24T10:05:23.577Z,33.87
2022-09-24T10:07:54.427Z,32.87
2022-09-24T10:10:24.617Z,33.67
2022-09-24T10:12:54.422Z,33.77
2022-09-24T10:15:24.542Z,34.47
2022-09-24T10:17:53.557Z,34.77
2022-09-24T10:20:23.706Z,34.17
2022-09-24T10:22:52.961Z,35.07
2022-09-24T10:25:26.117Z,35.27
2022-09-24T10:27:55.275Z,34.70
2022-09-24T10:30:33.730Z,33.77
2022-09-24T10:33:02.455Z,34.07
2022-09-24T10:35:31.188Z,33.73
2022-09-24T10:38:00.438Z,33.70
2022-09-24T10:40:30.978Z,34.10
2022-09-24T10:43:00.341Z,34.10
2022-09-24T10:45:55.978Z,32.87
2022-09-24T10:48:27.295Z,34.07
2022-09-24T10:50:58.718Z,32.83
2022-09-24T10:53:34.553Z,31.93
2022-09-24T10:56:07.591Z,31.17
2022-09-24T10:58:46.498Z,30.83
2022-09-24T11:01:18.013Z,31.03
2022-09-24T11:03:55.318Z,31.60
2022-09-24T11:06:36.242Z,31.50
2022-09-24T11:09:11.129Z,31.33
2022-09-24T11:11:47.784Z,31.10
2022-09-24T11:14:24.893Z,32.67
2022-09-24T11:17:23.258Z,32.23
2022-09-24T11:20:16.636Z,32.00
2022-09-24T11:22:57.383Z,30.13
2022-09-24T11:25:32.066Z,31.30
2022-09-24T11:28:13.197Z,30.73
2022-09-24T11:30:49.050Z,30.63
2022-09-24T11:33:27.197Z,29.77
2022-09-24T11:36:07.271Z,30.33
2022-09-24T11:38:45.157Z,29.77
2022-09-24T11:41:23.952Z,28.27
2022-09-24T11:44:28.880Z,29.37
2022-09-24T11:47:06.881Z,30.07
2022-09-24T11:49:45.452Z,30.60
2022-09-24T11:52:15.286Z,30.03
2022-09-24T11:54:49.902Z,31.60
2022-09-24T11:57:23.858Z,29.93
2022-09-24T11:59:55.404Z,31.20
2022-09-24T12:02:26.128Z,32.47
2022-09-24T12:04:58.185Z,30.47
2022-09-24T12:07:30.997Z,29.87
2022-09-24T12:10:00.962Z,29.00
2022-09-24T12:12:30.676Z,29.83
2022-09-24T12:15:03.021Z,28.97
2022-09-24T12:17:35.006Z,28.20
2022-09-24T12:20:06.582Z,28.47
2022-09-24T12:22:34.238Z,30.03
2022-09-24T12:25:01.762Z,31.07
2022-09-24T12:27:34.217Z,29.80
2022-09-24T12:30:25.318Z,30.27
2022-09-24T12:32:59.005Z,28.93
2022-09-24T12:35:34.442Z,27.50
2022-09-24T12:38:05.145Z,27.00
2022-09-24T12:40:44.355Z,27.73
2022-09-24T12:43:17.466Z,27.33
2022-09-24T12:45:47.570Z,29.70
2022-09-24T12:48:16.542Z,30.67
2022-09-24T12:50:45.905Z,31.67
2022-09-24T12:53:24.527Z,31.67
2022-09-24T12:55:52.163Z,32.37
2022-09-24T12:58:29.110Z,31.83
2022-09-24T13:01:12.170Z,31.50
2022-09-24T13:03:46.017Z,32.50
2022-09-24T13:06:24.479Z,33.07
2022-09-24T13:08:51.873Z,32.17
2022-09-24T13:11:31.277Z,33.27
2022-09-24T13:14:07.377Z,32.53
2022-09-24T13:16:40.337Z,32.37
2022-09-24T13:19:25.102Z,31.37
2022-09-24T13:21:56.259Z,31.07
2022-09-24T13:24:28.802Z,31.43
2022-09-24T13:26:56.265Z,31.30
2022-09-24T13:29:25.967Z,31.20
2022-09-24T13:31:57.557Z,30.00
2022-09-24T13:34:27.434Z,30.37
2022-09-24T13:36:58.389Z,29.93
2022-09-24T13:39:30.566Z,30.73
2022-09-24T13:42:02.375Z,32.23
2022-09-24T13:44:32.310Z,33.73
2022-09-24T13:47:06.208Z,34.73
2022-09-24T13:49:34.733Z,35.40
2022-09-24T13:52:10.037Z,35.00
2022-09-24T13:54:40.442Z,33.83
2022-09-24T13:57:12.742Z,33.73
2022-09-24T13:59:40.216Z,33.80
2022-09-24T14:02:27.766Z,33.73
2022-09-24T14:04:57.364Z,32.33
2022-09-24T14:07:25.264Z,32.20
2022-09-24T14:10:02.913Z,33.30
2022-09-24T14:12:30.313Z,33.10
2022-09-24T14:14:58.120Z,33.67
2022-09-24T14:17:27.376Z,33.00
2022-09-24T14:19:55.905Z,34.13
2022-09-24T14:22:25.174Z,34.70
2022-09-24T14:24:55.590Z,33.17
2022-09-24T14:27:23.979Z,33.87
2022-09-24T14:29:55.426Z,33.50
2022-09-24T14:32:24.243Z,33.90
2022-09-24T14:34:54.737Z,34.70
2022-09-24T14:37:24.721Z,33.60
2022-09-24T14:39:58.678Z,32.93
2022-09-24T14:42:29.139Z,31.57
2022-09-24T14:44:56.906Z,32.20
2022-09-24T14:47:29.222Z,32.17
2022-09-24T14:49:57.957Z,33.43
2022-09-24T14:52:31.282Z,33.13
2022-09-24T14:55:04.746Z,33.73
2022-09-24T14:57:37.325Z,34.10
2022-09-24T15:00:19.182Z,32.83
2022-09-24T15:02:50.451Z,34.63
2022-09-24T15:05:24.783Z,33.37
2022-09-24T15:07:52.240Z,33.77
2022-09-24T15:10:23.194Z,34.20
2022-09-24T15:12:52.198Z,33.57
2022-09-24T15:15:32.052Z,33.37
2022-09-24T15:17:59.734Z,33.97
2022-09-24T15:20:28.463Z,35.37
2022-09-24T15:22:56.506Z,34.10
2022-09-24T15:25:23.857Z,34.10
2022-09-24T15:27:54.409Z,34.17
2022-09-24T15:30:22.357Z,34.57
2022-09-24T15:32:51.058Z,35.93
2022-09-24T15:35:18.651Z,35.80
2022-09-24T15:37:48.569Z,37.80
2022-09-24T15:40:25.782Z,35.60
2022-09-24T15:42:53.422Z,36.20
2022-09-24T15:45:22.108Z,36.50
2022-09-24T15:47:49.768Z,37.27
2022-09-24T15:50:17.269Z,35.90
2022-09-24T15:52:48.955Z,37.10
2022-09-24T15:55:19.170Z,37.80
2022-09-24T15:57:47.113Z,36.17
2022-09-24T16:00:16.249Z,38.43
2022-09-24T16:02:44.973Z,38.47
2022-09-24T16:05:13.836Z,38.30
2022-09-24T16:07:41.266Z,38.83
2022-09-24T16:10:11.153Z,38.53
2022-09-24T16:12:38.767Z,38.87
2022-09-24T16:15:07.603Z,39.10
2022-09-24T16:17:35.033Z,39.77
2022-09-24T16:20:02.848Z,38.50
2022-09-24T16:22:30.235Z,40.10
2022-09-24T16:24:57.659Z,38.43
2022-09-24T16:27:29.692Z,39.40
2022-09-24T16:29:57.091Z,40.00
2022-09-24T16:32:24.412Z,40.63
2022-09-24T16:34:51.866Z,41.10
2022-09-24T16:37:19.225Z,41.33
2022-09-24T16:39:47.545Z,43.30
2022-09-24T16:42:14.861Z,41.70
2022-09-24T16:44:43.554Z,42.53
2022-09-24T16:47:10.946Z,42.80
2022-09-24T16:49:38.321Z,41.27
2022-09-24T16:52:06.117Z,41.87
2022-09-24T16:54:33.495Z,42.33
2022-09-24T16:57:01.774Z,43.33
2022-09-24T16:59:29.145Z,41.90
2022-09-24T17:01:59.379Z,42.33
2022-09-24T17:04:26.911Z,43.60
2022-09-24T17:06:54.681Z,43.37
2022-09-24T17:09:39.878Z,45.80
2022-09-24T17:12:07.472Z,45.53
2022-09-24T17:14:37.437Z,45.40
2022-09-24T17:17:06.629Z,45.80
2022-09-24T17:19:34.202Z,48.03
2022-09-24T17:22:01.720Z,46.23
2022-09-24T17:24:29.239Z,45.43
2022-09-24T17:26:56.658Z,44.60
2022-09-24T17:29:30.422Z,46.50
2022-09-24T17:31:58.968Z,46.80
2022-09-24T17:34:28.189Z,45.00
2022-09-24T17:36:56.424Z,47.33
2022-09-24T17:39:24.041Z,47.53
2022-09-24T17:41:51.365Z,47.20
2022-09-24T17:44:18.895Z,47.47
2022-09-24T17:46:46.388Z,48.07
2022-09-24T17:49:15.354Z,48.07
2022-09-24T17:51:46.337Z,46.87
2022-09-24T17:54:15.615Z,46.30
2022-09-24T17:56:43.297Z,46.10
2022-09-24T17:59:12.670Z,44.33
2022-09-24T18:01:44.553Z,44.90
2022-09-24T18:04:13.831Z,46.23
2022-09-24T18:06:42.494Z,43.27
2022-09-24T18:09:12.989Z,46.67
2022-09-24T18:11:41.738Z,46.03
2022-09-24T18:14:14.370Z,46.33
2022-09-24T18:16:42.227Z,44.43
2022-09-24T18:19:10.697Z,45.60
2022-09-24T18:21:38.181Z,44.73
2022-09-24T18:24:06.077Z,43.73
2022-09-24T18:26:36.508Z,42.97
2022-09-24T18:29:05.942Z,44.03
2022-09-24T18:31:34.694Z,43.13
2022-09-24T18:34:04.140Z,42.27
2022-09-24T18:36:32.037Z,43.90
2022-09-24T18:38:59.373Z,42.77
2022-09-24T18:41:28.765Z,45.97
2022-09-24T18:43:58.754Z,43.27
2022-09-24T18:46:28.978Z,46.90
2022-09-24T18:48:57.378Z,45.37
2022-09-24T18:51:26.633Z,47.87
2022-09-24T18:53:54.997Z,48.00
2022-09-24T18:56:23.821Z,46.20
2022-09-24T18:58:57.016Z,46.30
2022-09-24T19:01:25.168Z,45.43
2022-09-24T19:03:52.721Z,45.43
2022-09-24T19:06:20.429Z,47.23
2022-09-24T19:08:48.921Z,46.57
2022-09-24T19:11:17.405Z,48.87
2022-09-24T19:13:49.348Z,47.03
2022-09-24T19:16:21.078Z,45.83
2022-09-24T19:18:48.537Z,45.13
2022-09-24T19:21:16.368Z,45.77
2022-09-24T19:23:45.774Z,47.63
2022-09-24T19:26:15.346Z,46.70
2022-09-24T19:28:43.378Z,47.10
2022-09-24T19:31:14.774Z,46.30
2022-09-24T19:33:43.972Z,45.60
2022-09-24T19:36:11.664Z,46.67
2022-09-24T19:38:39.092Z,46.10
2022-09-24T19:41:08.410Z,45.80
2022-09-24T19:43:35.846Z,46.63
2022-09-24T19:46:05.760Z,44.47
2022-09-24T19:48:36.449Z,42.97
2022-09-24T19:51:08.554Z,42.83
2022-09-24T19:53:37.537Z,41.53
2022-09-24T19:56:05.541Z,39.33
2022-09-24T19:58:33.508Z,36.83
2022-09-24T20:01:05.396Z,34.33
2022-09-24T20:03:33.115Z,32.70
2022-09-24T20:06:00.593Z,32.33
2022-09-24T20:08:29.423Z,31.27
2022-09-24T20:10:56.777Z,30.37
2022-09-24T20:13:24.118Z,28.57
2022-09-24T20:15:58.373Z,27.00
2022-09-24T20:18:26.175Z,25.77
2022-09-24T20:20:54.514Z,22.47
2022-09-24T20:23:22.169Z,22.03
2022-09-24T20:26:12.632Z,22.33
2022-09-24T20:28:40.422Z,21.30
2022-09-24T20:31:10.104Z,20.93
2022-09-24T20:33:38.358Z,21.00
2022-09-24T20:36:14.733Z,20.60
2022-09-24T20:38:44.397Z,21.07
2022-09-24T20:41:15.193Z,21.87
2022-09-24T20:43:43.326Z,21.07
2022-09-24T20:46:14.013Z,20.47
2022-09-24T20:48:41.433Z,20.83
2022-09-24T20:51:09.779Z,22.20
2022-09-24T20:53:37.248Z,21.47
2022-09-24T20:56:05.854Z,21.80
2022-09-24T20:58:34.636Z,21.43
2022-09-24T21:01:05.381Z,23.07
2022-09-24T21:03:49.924Z,23.23
2022-09-24T21:06:18.446Z,21.97
2022-09-24T21:08:47.310Z,21.07
2022-09-24T21:11:17.873Z,21.67
2022-09-24T21:13:48.889Z,20.93
2022-09-24T21:16:17.503Z,22.53
2022-09-24T21:18:45.034Z,22.23
2022-09-24T21:21:15.975Z,21.33
2022-09-24T21:23:43.881Z,22.23
2022-09-24T21:26:13.018Z,23.20
2022-09-24T21:28:40.450Z,23.27
2022-09-24T21:31:09.210Z,22.50
2022-09-24T21:33:36.661Z,23.37
2022-09-24T21:36:05.604Z,21.70
2022-09-24T21:38:33.369Z,23.83
2022-09-24T21:41:03.166Z,24.40
2022-09-24T21:43:34.599Z,24.67
2022-09-24T21:46:04.888Z,24.57
2022-09-24T21:48:34.373Z,25.13
2022-09-24T21:51:06.442Z,24.87
2022-09-24T21:53:34.392Z,26.73
2022-09-24T21:56:02.373Z,26.57
2022-09-24T21:58:30.481Z,26.23
2022-09-24T22:01:00.930Z,26.73
2022-09-24T22:03:31.010Z,27.27
2022-09-24T22:06:03.857Z,27.37
2022-09-24T22:08:31.960Z,27.80
2022-09-24T22:11:04.285Z,27.23
2022-09-24T22:13:32.630Z,28.13
2022-09-24T22:16:01.442Z,28.17
2022-09-24T22:18:28.913Z,29.37
2022-09-24T22:20:57.849Z,29.00
2022-09-24T22:23:26.779Z,29.13
2022-09-24T22:25:56.092Z,28.50
2022-09-24T22:28:25.018Z,28.50
2022-09-24T22:30:53.247Z,30.13
2022-09-24T22:33:41.170Z,29.57
2022-09-24T22:36:08.953Z,30.07
2022-09-24T22:38:37.881Z,29.47
2022-09-24T22:41:08.034Z,29.70
2022-09-24T22:43:35.829Z,29.93
2022-09-24T22:46:05.607Z,32.00
2022-09-24T22:48:33.352Z,32.90
2022-09-24T22:51:00.822Z,33.83
2022-09-24T22:53:28.345Z,33.57
2022-09-24T22:56:05.328Z,33.53
2022-09-24T22:58:33.542Z,35.10
2022-09-24T23:01:07.383Z,33.80
2022-09-24T23:03:35.162Z,34.40
2022-09-24T23:06:02.642Z,33.43
2022-09-24T23:08:33.222Z,33.47
2022-09-24T23:11:07.926Z,35.47
2022-09-24T23:13:35.728Z,33.17
2022-09-24T23:16:11.566Z,34.57
2022-09-24T23:18:39.289Z,35.20
2022-09-24T23:21:07.266Z,34.70
2022-09-24T23:23:34.763Z,34.33
2022-09-24T23:26:04.724Z,35.93
2022-09-24T23:28:33.760Z,34.33
2022-09-24T23:31:01.598Z,35.57
2022-09-24T23:33:32.237Z,35.83
2022-09-24T23:35:59.871Z,35.27
2022-09-24T23:38:27.503Z,34.93
2022-09-24T23:40:54.990Z,35.40
2022-09-24T23:43:55.653Z,33.37
2022-09-24T23:46:23.074Z,33.10
2022-09-24T23:48:50.489Z,33.67
2022-09-24T23:51:17.839Z,32.87
2022-09-24T23:53:45.194Z,34.00
2022-09-24T23:56:13.280Z,34.17
2022-09-24T23:58:41.941Z,34.67
